Cheongju International Airport
RKTU : now visible

Airfield :











YOU CAN JOIN US ON...

 
LOGIN :

Register | Disclaimer

   EN    FR    IT 

 









Legend :    VFR   Marginal VFR   IFR   Intensive IFR   Very Intensive IFR
Visi :
Ceiling :
>= 8 km
>= 3000ft
5 to 8 km
1000 to 3000 ft
1500m to 5 km
500 to 1000 ft
800 to 1500m
200 to 500 ft
< 800m
< 200 ft
Symbols :   Thunderstorms  Fog  Heavy snow  Heavy precipitations  Wind > 20 kt







- Airport Elevation : 191 ft
- IATA code : CJJ


RKTU - Cheongju International

CURRENT METAR :
  • 211300Z 22002KT CAVOK 14/10 Q1014

EXPIRED METARs :
  • 211200Z 29001KT CAVOK 16/10 Q1013
  • 211100Z 27003KT CAVOK 18/10 Q1012

TAF TAF RKTU
Valid from the 21 at 12:00 until the 22 at 18:00 UTC


211100Z 2112/2218 33006KT 9999 SCT030 BKN200 TN09/2121Z TX25/2206Z
RKRR FIR / Asia



MET'MAP, your aeronautical weather chart ! - Copyright ORBIFLY December 2007 - Disclaimer

ORBIFLY MET'MAP TEAM :

Programming & Development : Alexandra Zaïnal
Concept & Development : Baudouin d'Aumeries
Co-Development & Prog : Marc-Olivier Méhu
Technical & hardware support : Manuel Goepfert

Contact : metmap@orbifly.com




SOURCES & CREDITS :

   NOAA       Earth
Advisory